Time;durP1;ratioP1;P1;durP2;ratioP2;P2;SDS_P1;SDS_P2;PMS_P1;PMS_P2;Temp;Humidity;BMP_temperature;BMP_pressure;BME280_temperature;BME280_humidity;BME280_pressure;Samples;Min_cycle;Max_cycle;Signal;HPM_P1;HPM_P2
2021/06/23 00:01:17;;;;;;;;;;;;;;;23.92;59.82;100138.09;5055929;28;19924;-90
2021/06/23 00:03:44;;;;;;;;;;;;;;;23.89;59.55;100143.66;5055853;28;20278;-92
2021/06/23 00:06:11;;;;;;;;;;;;;;;23.89;60.01;100138.06;5072300;28;19924;-92
2021/06/23 00:08:37;;;;;;;;;;;;;;;23.86;59.94;100136.84;5055866;28;19978;-89
2021/06/23 00:11:04;;;;;;;;;;;;;;;23.83;60.24;100145.19;5055215;28;20302;-88
2021/06/23 00:13:32;;;;;;;;;;;;;;;23.79;60.56;100141.56;5072211;28;19924;-90
2021/06/23 00:15:59;;;;;;;;;;;;;;;23.75;60.55;100135.13;5055505;28;19925;-89
2021/06/23 00:18:25;;;;;;;;;;;;;;;23.71;60.41;100134.28;5071778;28;19924;-89
2021/06/23 00:20:51;;;;;;;;;;;;;;;23.68;60.49;100139.44;5055310;28;19924;-89
2021/06/23 00:23:18;;;;;;;;;;;;;;;23.68;60.49;100138.66;5071633;28;19924;-89
2021/06/23 00:25:44;;;;;;;;;;;;;;;23.67;60.55;100137.81;5038342;28;20410;-89
2021/06/23 00:28:10;;;;;;;;;;;;;;;23.67;60.39;100154.56;5038468;28;20019;-88
2021/06/23 00:30:36;;;;;;;;;;;;;;;23.64;60.57;100149.75;5054914;28;19966;-89
2021/06/23 00:33:06;;;;;;;;;;;;;;;23.62;60.71;100149.31;5073078;28;19946;-89
2021/06/23 00:35:33;;;;;;;;;;;;;;;23.61;61.09;100149.72;5071897;28;19920;-88
2021/06/23 00:37:59;;;;;;;;;;;;;;;23.57;61.05;100152.44;5055386;28;19924;-88
2021/06/23 00:40:27;;;;;;;;;;;;;;;23.53;61.16;100151.59;5071637;28;20306;-88
2021/06/23 00:42:54;;;;;;;;;;;;;;;23.48;61.78;100151.94;5054976;28;19966;-93
2021/06/23 00:45:20;;;;;;;;;;;;;;;23.45;61.69;100152.69;5071991;28;19932;-88
2021/06/23 00:47:48;;;;;;;;;;;;;;;23.41;61.79;100149.03;5054829;28;20466;-89
2021/06/23 00:50:16;;;;;;;;;;;;;;;23.36;62.32;100147.41;5054831;28;20300;-88
2021/06/23 00:53:02;;;;;;;;;;;;;;;23.30;62.63;100150.91;5057772;28;19925;-88
2021/06/23 00:55:34;;;;;;;;;;;;;;;23.18;63.06;100149.16;5039284;28;19931;-88
2021/06/23 00:58:02;;;;;;;;;;;;;;;23.10;63.52;100144.66;5038417;28;19924;-93
2021/06/23 01:00:30;;;;;;;;;;;;;;;23.04;63.78;100144.19;5038095;28;20411;-89
2021/06/23 01:03:00;;;;;;;;;;;;;;;22.97;64.01;100150.47;5071603;28;19924;-92
2021/06/23 01:05:28;;;;;;;;;;;;;;;22.93;64.35;100140.44;5071747;28;19931;-89
2021/06/23 01:07:56;;;;;;;;;;;;;;;22.92;64.41;100136.03;5071807;28;19970;-88
2021/06/23 01:10:22;;;;;;;;;;;;;;;22.89;64.33;100140.38;5038249;28;20305;-89
2021/06/23 01:12:56;;;;;;;;;;;;;;;22.86;64.59;100137.53;5054555;28;19931;-91
2021/06/23 01:15:24;;;;;;;;;;;;;;;22.86;64.53;100134.75;5055215;28;19925;-89
2021/06/23 01:17:50;;;;;;;;;;;;;;;22.87;64.43;100139.13;5071540;28;20393;-89
2021/06/23 01:20:17;;;;;;;;;;;;;;;22.89;64.50;100145.94;5038201;28;20296;-90
2021/06/23 01:22:45;;;;;;;;;;;;;;;22.92;64.38;100144.41;5054736;28;19925;-89
2021/06/23 01:25:13;;;;;;;;;;;;;;;22.92;64.12;100147.97;5054505;28;19924;-93
2021/06/23 01:27:44;;;;;;;;;;;;;;;22.91;64.29;100149.16;5071204;28;19924;-93
2021/06/23 01:30:12;;;;;;;;;;;;;;;22.94;64.22;100148.41;5070975;28;20027;-88
2021/06/23 01:32:53;;;;;;;;;;;;;;;22.97;64.41;100155.25;5040081;28;19924;-88
2021/06/23 01:35:20;;;;;;;;;;;;;;;23.02;64.30;100154.94;5072510;28;20423;-94
2021/06/23 01:37:48;;;;;;;;;;;;;;;23.06;64.52;100152.97;5041077;28;19928;-89
2021/06/23 01:40:15;;;;;;;;;;;;;;;23.12;64.07;100159.06;5058147;28;20015;-92
2021/06/23 01:42:42;;;;;;;;;;;;;;;23.16;64.14;100154.31;5074856;28;19924;-88
2021/06/23 01:45:09;;;;;;;;;;;;;;;23.20;63.88;100158.75;5057980;28;19920;-93
2021/06/23 01:47:34;;;;;;;;;;;;;;;23.23;63.80;100162.78;5041176;28;19924;-88
2021/06/23 01:50:01;;;;;;;;;;;;;;;23.26;63.80;100158.44;5057591;28;19968;-88
2021/06/23 01:52:28;;;;;;;;;;;;;;;23.30;63.79;100162.88;5057959;28;19968;-89
2021/06/23 01:54:56;;;;;;;;;;;;;;;23.33;63.42;100164.91;5058191;28;19924;-88
2021/06/23 01:57:23;;;;;;;;;;;;;;;23.35;63.62;100167.34;5074541;28;19931;-88
2021/06/23 01:59:54;;;;;;;;;;;;;;;23.31;63.81;100166.47;5041773;28;19928;-88
2021/06/23 02:02:48;;;;;;;;;;;;;;;23.34;63.92;100162.91;5054302;28;19924;-88
2021/06/23 02:05:21;;;;;;;;;;;;;;;23.34;63.98;100171.28;5054213;28;19925;-88
2021/06/23 02:07:47;;;;;;;;;;;;;;;23.35;64.20;100167.34;5071017;28;19924;-92
2021/06/23 02:10:34;;;;;;;;;;;;;;;23.37;64.07;100171.31;5037761;28;20327;-88
2021/06/23 02:13:22;;;;;;;;;;;;;;;23.41;64.36;100171.38;5040096;28;19929;-88
2021/06/23 02:15:49;;;;;;;;;;;;;;;23.44;64.10;100174.22;5054222;28;19986;-92
2021/06/23 02:18:18;;;;;;;;;;;;;;;23.48;63.36;100171.47;5054161;28;19952;-88
2021/06/23 02:21:07;;;;;;;;;;;;;;;23.56;63.40;100164.00;5054998;28;19925;-92
2021/06/23 02:23:41;;;;;;;;;;;;;;;23.64;62.87;100169.28;5037758;28;20015;-88
2021/06/23 02:26:07;;;;;;;;;;;;;;;23.74;62.81;100170.63;5053912;28;20286;-92
2021/06/23 02:28:33;;;;;;;;;;;;;;;23.79;62.89;100161.09;5053816;28;19928;-92
2021/06/23 02:31:00;;;;;;;;;;;;;;;23.85;62.62;100171.53;5020580;28;19925;-88
2021/06/23 02:33:29;;;;;;;;;;;;;;;23.92;61.92;100162.44;5053403;28;19932;-88
2021/06/23 02:35:58;;;;;;;;;;;;;;;23.99;61.96;100170.88;5053431;28;19925;-88
2021/06/23 02:39:07;;;;;;;72.60;15.50;;;;;;;24.00;63.05;100164.09;5070194;28;20427;-95
2021/06/23 02:41:34;;;;;;;90.30;15.52;;;;;;;24.19;61.76;100173.47;5070075;28;20049;-81
2021/06/23 02:44:05;;;;;;;74.95;16.52;;;;;;;24.21;62.75;100171.13;5070241;28;20032;-81
2021/06/23 02:46:32;;;;;;;63.50;15.60;;;;;;;24.22;62.63;100162.34;5068131;28;20083;-93
2021/06/23 02:49:14;;;;;;;49.72;14.30;;;;;;;24.30;62.28;100157.59;5070350;28;20044;-95
2021/06/23 02:51:45;;;;;;;63.13;15.18;;;;;;;24.43;61.63;100181.31;5068672;28;20037;-95
2021/06/23 02:54:13;;;;;;;92.05;17.42;;;;;;;24.49;63.28;100167.78;5069684;28;20044;-93
2021/06/23 02:57:00;;;;;;;125.28;19.02;;;;;;;24.54;63.93;100170.25;5070924;28;20033;-96
2021/06/23 02:59:30;;;;;;;107.40;18.77;;;;;;;24.68;62.55;100175.16;5068494;28;20047;-80
2021/06/23 03:01:57;;;;;;;80.18;15.73;;;;;;;24.76;61.21;100168.41;5068691;28;20064;-81
2021/06/23 03:04:23;;;;;;;57.58;13.20;;;;;;;24.80;58.71;100166.44;5069141;28;20040;-93
2021/06/23 03:07:11;;;;;;;46.22;13.82;;;;;;;24.95;58.50;100165.34;5069096;28;20106;-95
2021/06/23 03:09:43;;;;;;;81.53;14.82;;;;;;;25.07;59.81;100167.03;5068819;28;20571;-82
2021/06/23 03:12:42;;;;;;;69.93;15.15;;;;;;;25.13;58.38;100171.06;5068307;28;20178;-81
2021/06/23 03:15:35;;;;;;;210.57;21.10;;;;;;;25.17;58.48;100157.91;5068007;28;20044;-80
2021/06/23 03:18:14;;;;;;;78.72;14.55;;;;;;;25.34;56.95;100176.00;5068348;28;20086;-94
2021/06/23 03:20:41;;;;;;;57.15;12.73;;;;;;;25.28;57.69;100152.38;5068185;28;20498;-81
2021/06/23 03:23:07;;;;;;;77.35;16.33;;;;;;;25.52;58.14;100174.06;5066798;28;20123;-80
2021/06/23 03:25:34;;;;;;;72.07;14.00;;;;;;;25.59;57.76;100178.09;5066686;28;20041;-81
2021/06/23 03:28:04;;;;;;;67.50;13.68;;;;;;;25.51;57.78;100163.25;5065467;28;20048;-81
2021/06/23 03:30:33;;;;;;;64.65;14.20;;;;;;;25.61;57.51;100161.69;5065488;28;20095;-81
2021/06/23 03:33:01;;;;;;;72.97;13.68;;;;;;;25.57;55.70;100158.91;5066655;28;20040;-81
2021/06/23 03:35:30;;;;;;;65.85;12.88;;;;;;;25.81;57.25;100181.81;5060514;28;20064;-81
2021/06/23 03:37:57;;;;;;;58.30;13.07;;;;;;;25.89;57.59;100183.41;5065218;28;20053;-81
2021/06/23 03:40:24;;;;;;;120.00;16.63;;;;;;;25.92;57.87;100165.81;5062647;28;20037;-80
2021/06/23 03:42:52;;;;;;;304.40;25.38;;;;;;;26.11;56.85;100178.66;5065175;28;20049;-82
2021/06/23 03:45:19;;;;;;;96.90;15.23;;;;;;;26.11;56.78;100165.47;5063526;28;20106;-80
2021/06/23 03:47:46;;;;;;;234.32;20.23;;;;;;;26.32;56.11;100170.28;5068895;28;20063;-83
2021/06/23 03:50:16;;;;;;;88.15;14.02;;;;;;;26.40;54.33;100162.69;5054857;28;20037;-83
2021/06/23 03:52:47;;;;;;;51.92;12.82;;;;;;;26.36;54.13;100145.88;5037331;28;20041;-83
2021/06/23 03:55:20;;;;;;;87.50;14.07;;;;;;;26.58;54.19;100173.94;5052680;28;20071;-83
2021/06/23 03:57:49;;;;;;;38.80;10.57;;;;;;;26.65;52.51;100173.91;5052228;28;20041;-81
2021/06/23 04:00:16;;;;;;;40.90;10.32;;;;;;;26.74;52.37;100177.13;5052120;28;20071;-87
2021/06/23 04:02:45;;;;;;;39.70;9.15;;;;;;;26.82;51.24;100173.13;5054838;28;20132;-94
2021/06/23 04:05:15;;;;;;;29.75;9.07;;;;;;;26.90;49.72;100173.91;5056975;28;20040;-91
2021/06/23 04:07:44;;;;;;;28.38;9.27;;;;;;;26.96;49.96;100169.50;5058897;28;20037;-91
2021/06/23 04:10:12;;;;;;;44.38;10.43;;;;;;;27.01;50.29;100177.47;5059089;28;20048;-80
2021/06/23 04:12:38;;;;;;;55.15;10.35;;;;;;;27.06;51.71;100179.09;5054281;28;20128;-80
2021/06/23 04:15:07;;;;;;;51.10;11.23;;;;;;;27.10;52.38;100175.06;5054258;28;20426;-81
2021/06/23 04:17:34;;;;;;;46.80;9.82;;;;;;;27.11;50.20;100162.63;5054274;28;20044;-81
2021/06/23 04:20:01;;;;;;;70.00;12.10;;;;;;;27.28;51.78;100174.25;5053926;28;20041;-81
2021/06/23 04:22:47;;;;;;;38.35;11.65;;;;;;;27.27;52.38;100172.66;5053950;28;20045;-81
2021/06/23 04:25:14;;;;;;;62.38;12.75;;;;;;;27.30;52.67;100169.03;5053885;28;20072;-81
2021/06/23 04:27:40;;;;;;;59.20;11.20;;;;;;;27.43;52.49;100180.63;5052721;28;20045;-81
2021/06/23 04:30:10;;;;;;;45.78;10.70;;;;;;;27.47;51.33;100168.16;5036524;28;20045;-96
2021/06/23 04:32:37;;;;;;;71.15;13.65;;;;;;;27.54;51.29;100176.53;5057848;28;20520;-80
2021/06/23 04:35:14;;;;;;;40.60;11.23;;;;;;;27.58;50.40;100168.09;5052821;28;20501;-79
2021/06/23 04:37:43;;;;;;;32.55;9.90;;;;;;;27.62;50.26;100174.53;5052785;28;20518;-80
2021/06/23 04:40:13;;;;;;;33.58;9.10;;;;;;;27.65;50.01;100162.47;5052986;28;20037;-80
2021/06/23 04:42:45;;;;;;;38.72;10.32;;;;;;;27.75;49.04;100170.03;5054016;28;20045;-79
2021/06/23 04:45:13;;;;;;;75.85;28.45;;;;;;;27.79;49.75;100168.03;5053758;28;20445;-80
2021/06/23 04:47:52;;;;;;;46.80;10.63;;;;;;;27.83;49.76;100174.44;5053555;28;20057;-78
2021/06/23 04:50:19;;;;;;;66.55;12.75;;;;;;;27.83;50.65;100166.00;5052195;28;20041;-92
2021/06/23 04:53:14;;;;;;;87.72;14.85;;;;;;;27.95;51.12;100175.19;5048710;28;20182;-93
2021/06/23 04:55:43;;;;;;;67.03;13.05;;;;;;;28.02;50.34;100169.53;5053032;28;20534;-80
2021/06/23 04:58:14;;;;;;;123.47;15.15;;;;;;;28.00;50.60;100166.31;5052830;28;20501;-79
2021/06/23 05:00:42;;;;;;;86.80;13.18;;;;;;;28.15;49.64;100179.06;5050594;28;20033;-79
2021/06/23 05:03:14;;;;;;;73.78;12.02;;;;;;;28.20;48.77;100184.25;5048704;28;20032;-80
2021/06/23 05:05:44;;;;;;;39.20;10.70;;;;;;;28.22;48.56;100179.03;5050988;28;20051;-79
2021/06/23 05:08:10;;;;;;;36.08;11.90;;;;;;;28.28;49.88;100176.59;5052689;28;20124;-79
2021/06/23 05:10:36;;;;;;;60.40;12.57;;;;;;;28.39;50.72;100182.13;5052842;28;20167;-78
2021/06/23 05:13:03;;;;;;;67.53;12.60;;;;;;;28.49;48.51;100184.06;5052718;28;20033;-79
2021/06/23 05:15:29;;;;;;;44.10;12.18;;;;;;;28.53;49.02;100176.41;5052844;28;20045;-89
2021/06/23 05:17:56;;;;;;;51.55;11.63;;;;;;;28.64;49.12;100188.34;5051088;28;20406;-80
2021/06/23 05:20:23;;;;;;;55.67;13.60;;;;;;;28.66;48.82;100185.13;5052666;28;20029;-80
2021/06/23 05:22:50;;;;;;;78.70;15.63;;;;;;;28.72;48.88;100183.47;5052759;28;20049;-80
2021/06/23 05:25:19;;;;;;;39.63;10.38;;;;;;;28.75;47.70;100182.66;5052652;28;20053;-80
2021/06/23 05:27:46;;;;;;;47.90;11.48;;;;;;;28.75;46.21;100171.41;5052719;28;20041;-81
2021/06/23 05:30:13;;;;;;;34.47;9.50;;;;;;;28.88;45.20;100191.38;5051434;28;20052;-80
2021/06/23 05:32:39;;;;;;;67.25;10.80;;;;;;;28.91;46.03;100193.38;5052447;28;20689;-80
2021/06/23 05:35:06;;;;;;;39.22;9.98;;;;;;;29.00;45.74;100188.84;5052571;28;20053;-80
2021/06/23 05:37:32;;;;;;;51.95;10.82;;;;;;;28.96;45.70;100170.38;5052241;28;20056;-80
2021/06/23 05:39:58;;;;;;;34.13;9.40;;;;;;;29.12;45.73;100183.91;5051307;28;20079;-81
2021/06/23 05:42:24;;;;;;;44.38;10.32;;;;;;;29.10;44.83;100173.06;5052137;28;20068;-91
2021/06/23 05:44:52;;;;;;;37.65;10.85;;;;;;;29.21;46.34;100175.78;5052234;28;20064;-81
2021/06/23 05:47:18;;;;;;;76.82;12.13;;;;;;;29.25;45.05;100171.69;5051987;28;20052;-80
2021/06/23 05:49:44;;;;;;;45.83;10.02;;;;;;;29.36;45.17;100173.59;5051868;28;20056;-80
2021/06/23 05:52:10;;;;;;;37.72;9.05;;;;;;;29.37;43.06;100169.53;5051991;28;20037;-80
2021/06/23 05:54:36;;;;;;;41.67;9.00;;;;;;;29.44;42.65;100169.47;5052071;28;20091;-80
2021/06/23 05:57:02;;;;;;;43.35;10.07;;;;;;;29.38;43.19;100151.44;5052249;28;20041;-80
2021/06/23 05:59:30;;;;;;;;;;;;;;;29.55;41.96;100167.31;5052646;28;20458;-81
2021/06/23 06:01:56;;;;;;;32.55;8.50;;;;;;;29.57;41.34;100169.69;5051892;28;20517;-82
2021/06/23 06:04:22;;;;;;;33.55;8.43;;;;;;;29.60;41.61;100175.31;5051855;28;20037;-80
2021/06/23 06:06:48;;;;;;;82.18;11.43;;;;;;;29.66;41.00;100170.81;5051787;28;20548;-80
2021/06/23 06:09:14;;;;;;;42.65;9.35;;;;;;;29.62;41.40;100149.53;5051831;28;20140;-80
2021/06/23 06:11:40;;;;;;;;;;;;;;;29.79;42.95;100162.59;5051911;28;20155;-80
2021/06/23 06:14:06;;;;;;;31.50;10.48;;;;;;;29.75;41.80;100158.22;5052138;28;19951;-80
2021/06/23 06:16:32;;;;;;;;;;;;;;;29.90;42.87;100173.72;5050903;28;20082;-80
2021/06/23 06:18:59;;;;;;;50.88;12.77;;;;;;;29.84;42.32;100156.50;5051552;28;20022;-93
2021/06/23 06:21:25;;;;;;;56.83;12.38;;;;;;;29.90;43.67;100166.06;5051439;28;20051;-80
2021/06/23 06:23:51;;;;;;;47.45;11.77;;;;;;;29.97;43.60;100170.81;5051558;28;20041;-80
2021/06/23 06:26:19;;;;;;;84.95;14.25;;;;;;;30.02;44.27;100164.69;5051390;28;20119;-81
2021/06/23 06:28:45;;;;;;;49.13;14.48;;;;;;;30.09;43.85;100167.38;5051360;28;20128;-80
2021/06/23 06:31:11;;;;;;;33.13;11.65;;;;;;;30.14;41.96;100158.47;5051440;28;20037;-86
2021/06/23 06:33:37;;;;;;;55.22;13.02;;;;;;;30.24;43.28;100170.03;5051917;28;20098;-80
2021/06/23 06:36:05;;;;;;;53.90;12.48;;;;;;;30.28;41.56;100167.97;5050051;28;20442;-80
2021/06/23 06:38:31;;;;;;;112.25;15.55;;;;;;;30.32;42.26;100177.94;5051191;28;20110;-80
2021/06/23 06:40:58;;;;;;;37.03;10.68;;;;;;;30.33;40.27;100173.09;5058411;28;20036;-80
2021/06/23 06:43:27;;;;;;;35.50;11.73;;;;;;;30.34;40.91;100178.31;5050199;28;20029;-81
2021/06/23 06:45:53;;;;;;;56.83;17.23;;;;;;;30.38;42.11;100169.81;5049833;28;20070;-81
2021/06/23 06:48:21;;;;;;;50.78;20.23;;;;;;;30.39;42.55;100163.72;5051650;28;20033;-82
2021/06/23 06:50:48;;;;;;;33.83;10.90;;;;;;;30.56;42.74;100173.16;5050720;28;20072;-82
2021/06/23 06:53:15;;;;;;;47.92;11.07;;;;;;;30.58;41.37;100170.66;5051130;28;20053;-94
2021/06/23 06:55:41;;;;;;;51.35;10.52;;;;;;;30.50;40.32;100152.28;5052526;28;20529;-84
2021/06/23 06:58:07;;;;;;;46.95;14.18;;;;;;;30.62;41.56;100159.31;5050219;28;20048;-80
2021/06/23 07:00:33;;;;;;;30.48;7.55;;;;;;;30.65;37.07;100158.47;5050890;28;20041;-92
2021/06/23 07:02:59;;;;;;;43.20;16.67;;;;;;;30.77;38.29;100172.00;5051710;28;20037;-92
2021/06/23 07:05:25;;;;;;;51.47;30.40;;;;;;;30.83;40.83;100181.56;5053012;28;20033;-92
2021/06/23 07:07:53;;;;;;;60.35;22.45;;;;;;;30.86;39.53;100177.06;5056699;28;20044;-89
2021/06/23 07:10:19;;;;;;;43.78;13.43;;;;;;;30.92;39.17;100175.34;5056485;28;20123;-92
2021/06/23 07:12:46;;;;;;;27.40;11.13;;;;;;;30.95;40.33;100170.88;5050204;28;20040;-81
2021/06/23 07:15:13;;;;;;;25.08;6.95;;;;;;;31.00;39.17;100167.56;5051062;28;20052;-90
2021/06/23 07:17:39;;;;;;;38.45;19.95;;;;;;;31.10;39.05;100180.69;5050951;28;20044;-88
2021/06/23 07:20:06;;;;;;;54.00;29.00;;;;;;;31.11;38.77;100180.22;5049995;28;20049;-82
2021/06/23 07:22:33;;;;;;;53.50;31.83;;;;;;;31.02;39.39;100151.75;5049720;28;20175;-86
2021/06/23 07:24:59;;;;;;;33.67;15.32;;;;;;;31.16;39.81;100169.66;5047358;28;20497;-80
2021/06/23 07:27:26;;;;;;;32.15;14.18;;;;;;;31.18;39.28;100168.00;5050558;28;20045;-81
2021/06/23 07:29:54;;;;;;;24.08;5.32;;;;;;;31.23;35.13;100167.50;5053256;28;20072;-83
2021/06/23 07:37:14;;;;;;;24.13;7.78;;;;;;;31.40;34.98;100191.00;5053156;28;20037;-83
2021/06/23 07:39:40;;;;;;;50.92;30.50;;;;;;;31.40;37.28;100181.75;5049213;28;20094;-82
2021/06/23 07:42:10;;;;;;;30.65;13.77;;;;;;;31.43;37.17;100184.50;5051724;28;20041;-80
2021/06/23 07:47:07;;;;;;;60.92;37.20;;;;;;;31.51;36.50;100190.78;5052773;28;20044;-80
2021/06/23 07:49:37;;;;;;;48.88;23.30;;;;;;;31.56;36.32;100187.47;5053279;28;20402;-80
2021/06/23 07:52:11;;;;;;;25.17;11.75;;;;;;;31.58;34.94;100185.75;5048960;28;20036;-84
2021/06/23 08:10:50;;;;;;;40.90;19.90;;;;;;;31.72;36.92;100206.47;5051561;28;20133;-84
2021/06/23 08:13:17;;;;;;;42.63;23.38;;;;;;;31.71;37.11;100202.06;5051050;28;20429;-80
2021/06/23 08:15:45;;;;;;;52.00;23.38;;;;;;;31.66;37.34;100196.94;5050920;28;20082;-81
2021/06/23 08:18:19;;;;;;;29.33;10.65;;;;;;;31.74;35.82;100196.34;5050473;28;20091;-84
2021/06/23 08:20:47;;;;;;;42.90;21.85;;;;;;;31.64;37.25;100182.44;5051031;28;20041;-89
2021/06/23 08:23:14;;;;;;;41.58;20.88;;;;;;;31.77;37.56;100197.50;5047093;28;20106;-80
2021/06/23 08:25:42;;;;;;;26.08;14.32;;;;;;;31.84;37.30;100203.00;5049162;28;20687;-80
2021/06/23 08:28:08;;;;;;;34.63;18.75;;;;;;;31.78;37.11;100188.56;5050719;28;20059;-81
2021/06/23 08:30:35;;;;;;;27.77;11.60;;;;;;;31.85;37.01;100198.13;5049406;28;20037;-81
2021/06/23 08:33:02;;;;;;;29.75;17.55;;;;;;;31.91;37.34;100205.69;5049438;28;20454;-81
2021/06/23 08:35:30;;;;;;;33.97;9.70;;;;;;;31.94;35.53;100198.38;5048822;28;20103;-82
2021/06/23 08:37:56;;;;;;;29.45;6.43;;;;;;;31.87;34.81;100185.16;5049719;28;20090;-81
2021/06/23 08:40:22;;;;;;;32.38;11.45;;;;;;;31.94;36.12;100193.50;5050647;28;20048;-81
2021/06/23 08:42:48;;;;;;;35.17;13.23;;;;;;;31.93;37.00;100194.75;5050407;28;20398;-81
2021/06/23 08:45:15;;;;;;;35.80;7.03;;;;;;;32.03;35.29;100199.38;5054532;28;20028;-91
2021/06/23 08:47:47;;;;;;;36.15;9.30;;;;;;;32.09;36.08;100196.81;5030337;28;20073;-93
2021/06/23 08:50:21;;;;;;;23.05;10.07;;;;;;;32.09;35.87;100187.50;5036801;28;20095;-82
2021/06/23 08:52:48;;;;;;;22.08;8.90;;;;;;;32.06;34.26;100180.72;5049048;28;20048;-82
2021/06/23 08:55:19;;;;;;;21.23;10.15;;;;;;;32.04;34.05;100181.16;5051116;28;20049;-88
2021/06/23 08:57:47;;;;;;;49.58;9.00;;;;;;;32.07;36.01;100182.31;5043638;28;20067;-81
2021/06/23 09:00:14;;;;;;;31.10;6.57;;;;;;;32.03;34.58;100165.44;5045302;28;20045;-88
2021/06/23 09:02:44;;;;;;;18.02;6.50;;;;;;;32.26;34.70;100189.16;5035094;28;20060;-81
2021/06/23 09:05:13;;;;;;;29.50;11.50;;;;;;;32.29;35.24;100191.09;5048035;28;20602;-79
2021/06/23 09:07:45;;;;;;;25.63;9.18;;;;;;;32.26;33.41;100183.50;5046412;28;20075;-79
2021/06/23 09:10:23;;;;;;;27.58;9.20;;;;;;;32.31;35.62;100196.31;5046432;28;20045;-80
2021/06/23 09:13:00;;;;;;;21.15;8.48;;;;;;;32.36;36.30;100196.59;5047711;28;20101;-80
2021/06/23 09:15:44;;;;;;;;;;;;;;;32.42;36.57;100192.03;5063703;28;20041;-79
2021/06/23 09:18:29;;;;;;;36.22;6.88;;;;;;;32.47;33.81;100190.69;5048175;28;20003;-80
2021/06/23 09:21:11;;;;;;;18.33;8.20;;;;;;;32.49;35.64;100185.41;5026613;28;20052;-79
2021/06/23 09:23:44;;;;;;;27.13;7.13;;;;;;;32.49;34.48;100182.56;5041989;28;20044;-91
2021/06/23 09:26:24;;;;;;;32.25;7.63;;;;;;;32.52;34.47;100178.84;5049493;28;20044;-88
2021/06/23 09:29:17;;;;;;;32.63;7.78;;;;;;;32.45;32.67;100177.00;5046077;28;20045;-79
2021/06/23 09:31:58;;;;;;;28.25;7.03;;;;;;;32.47;32.76;100177.31;5045752;28;20134;-82
2021/06/23 09:34:25;;;;;;;58.05;10.38;;;;;;;32.52;33.79;100173.19;5044383;28;20116;-79
2021/06/23 09:36:52;;;;;;;37.13;7.55;;;;;;;32.55;32.57;100177.97;5045308;28;20043;-79
2021/06/23 09:39:21;;;;;;;35.83;7.30;;;;;;;32.58;32.62;100177.06;5044430;28;20056;-78
2021/06/23 09:41:57;;;;;;;23.73;8.23;;;;;;;32.58;35.18;100179.88;5039771;28;20044;-80
2021/06/23 09:44:24;;;;;;;31.42;8.48;;;;;;;32.64;35.83;100175.28;5063780;28;20517;-79
2021/06/23 09:46:51;;;;;;;23.33;6.90;;;;;;;32.71;35.84;100177.94;5063812;28;20048;-79
2021/06/23 09:49:26;;;;;;;36.85;7.30;;;;;;;32.82;35.98;100174.84;5061841;28;20044;-88
2021/06/23 09:51:58;;;;;;;42.85;7.93;;;;;;;32.79;36.35;100164.41;5042200;28;20048;-79
2021/06/23 09:54:27;;;;;;;35.13;7.43;;;;;;;32.91;35.15;100168.50;5043263;28;20537;-78
2021/06/23 09:57:15;;;;;;;30.88;6.68;;;;;;;32.87;32.58;100153.66;5043338;28;20263;-85
2021/06/23 09:59:45;;;;;;;27.35;6.88;;;;;;;32.98;33.69;100166.34;5043273;28;20072;-80
2021/06/23 10:02:31;;;;;;;29.92;7.30;;;;;;;32.92;34.74;100151.09;5023709;28;20128;-79
2021/06/23 10:05:05;;;;;;;30.63;7.55;;;;;;;32.97;35.35;100164.72;5022501;28;20486;-80
2021/06/23 10:07:48;;;;;;;22.15;6.88;;;;;;;32.90;34.44;100164.09;5022659;28;20130;-80
2021/06/23 10:10:21;;;;;;;27.48;7.70;;;;;;;32.87;34.78;100159.31;5022485;28;20399;-78
2021/06/23 10:12:55;;;;;;;27.38;7.30;;;;;;;32.85;32.48;100156.94;5041490;28;20592;-78
2021/06/23 10:15:22;;;;;;;37.85;6.95;;;;;;;32.83;33.60;100150.94;5037383;28;20052;-78
2021/06/23 10:17:48;;;;;;;;;;;;;;;32.88;34.29;100150.41;5060336;28;20118;-80
2021/06/23 10:20:16;;;;;;;20.15;6.65;;;;;;;32.81;34.17;100135.63;5070372;28;20365;-79
2021/06/23 10:22:44;;;;;;;28.50;6.82;;;;;;;32.85;34.22;100142.78;5063782;28;20020;-93
2021/06/23 10:25:15;;;;;;;33.13;7.45;;;;;;;32.83;33.97;100138.81;5058620;28;20079;-92
2021/06/23 10:27:46;;;;;;;27.90;6.63;;;;;;;32.89;33.49;100149.16;5052522;28;20044;-93
2021/06/23 10:30:15;;;;;;;45.00;7.40;;;;;;;32.97;33.27;100149.78;5052907;28;20524;-85
2021/06/23 10:32:42;;;;;;;33.38;7.07;;;;;;;32.82;33.01;100140.84;5047486;28;20033;-79
2021/06/23 10:35:10;;;;;;;32.20;7.35;;;;;;;32.96;32.42;100140.47;5044945;28;20040;-79
2021/06/23 10:37:38;;;;;;;32.45;6.78;;;;;;;33.01;31.50;100136.28;5042379;28;20059;-78
2021/06/23 10:40:07;;;;;;;31.52;7.05;;;;;;;33.09;31.35;100143.38;5045384;28;20091;-86
2021/06/23 10:42:33;;;;;;;39.28;9.00;;;;;;;33.10;31.96;100127.94;5055256;28;20119;-86
2021/06/23 10:45:00;;;;;;;35.05;6.95;;;;;;;33.21;30.92;100138.97;5050295;28;20391;-79
2021/06/23 10:47:41;;;;;;;28.33;7.30;;;;;;;33.25;30.87;100124.72;5053904;28;20039;-84
2021/06/23 10:50:09;;;;;;;31.02;6.82;;;;;;;33.38;32.40;100134.06;5049905;28;20602;-83
2021/06/23 10:52:41;;;;;;;23.60;6.45;;;;;;;33.42;31.18;100131.91;5052609;28;20215;-83
2021/06/23 10:55:28;;;;;;;34.08;6.95;;;;;;;33.47;32.25;100133.38;5050268;28;20041;-82
2021/06/23 10:57:59;;;;;;;26.05;6.63;;;;;;;33.39;32.01;100127.94;5044522;28;20047;-80
2021/06/23 11:00:31;;;;;;;24.40;6.43;;;;;;;33.42;32.11;100129.88;5054475;28;20045;-82
2021/06/23 11:03:18;;;;;;;29.42;6.45;;;;;;;33.49;30.95;100120.38;5060546;28;20036;-78
2021/06/23 11:05:50;;;;;;;25.85;7.07;;;;;;;33.43;32.12;100122.94;5069955;28;20506;-79
2021/06/23 11:08:45;;;;;;;24.48;7.32;;;;;;;33.55;32.51;100132.75;5052366;28;20123;-81
2021/06/23 11:11:12;;;;;;;32.30;6.82;;;;;;;33.58;32.14;100126.19;5034619;28;20111;-79
2021/06/23 11:13:39;;;;;;;;;;;;;;;33.71;31.91;100125.38;5052851;28;20452;-79
2021/06/23 11:16:07;;;;;;;22.35;6.20;;;;;;;33.83;31.34;100125.38;5053896;28;19989;-82
2021/06/23 11:18:34;;;;;;;30.45;6.55;;;;;;;33.87;30.88;100117.56;5052440;28;20509;-78
2021/06/23 11:21:06;;;;;;;28.20;7.82;;;;;;;33.86;31.50;100115.19;5056143;28;20071;-80
2021/06/23 11:23:47;;;;;;;30.08;6.47;;;;;;;33.84;31.39;100109.97;5056785;28;20032;-81
2021/06/23 11:26:19;;;;;;;30.02;6.78;;;;;;;33.89;32.30;100114.28;5053127;28;20086;-80
2021/06/23 11:28:49;;;;;;;33.35;6.72;;;;;;;34.00;29.43;100108.25;5049003;28;20068;-76
2021/06/23 11:31:16;;;;;;;38.30;6.80;;;;;;;34.10;31.40;100107.13;5034937;28;20049;-79
2021/06/23 11:33:43;;;;;;;31.05;7.15;;;;;;;34.06;29.37;100112.94;5037653;28;20506;-82
2021/06/23 11:36:14;;;;;;;31.48;6.47;;;;;;;34.17;28.11;100103.28;5054468;28;20506;-76
2021/06/23 11:38:41;;;;;;;40.65;6.72;;;;;;;34.27;28.75;100105.78;5054356;28;20056;-76
2021/06/23 11:41:09;;;;;;;30.27;6.63;;;;;;;34.31;31.03;100095.09;5054196;28;20048;-76
2021/06/23 11:43:35;;;;;;;32.03;6.10;;;;;;;34.24;29.81;100095.34;5054169;28;20072;-76
2021/06/23 11:46:03;;;;;;;27.30;6.40;;;;;;;34.21;30.56;100106.81;5054297;28;20044;-75
2021/06/23 11:48:32;;;;;;;21.17;5.80;;;;;;;34.17;30.21;100104.06;5054654;28;20041;-76
2021/06/23 11:50:58;;;;;;;23.73;6.05;;;;;;;34.22;30.17;100105.56;5053928;28;20079;-76
2021/06/23 11:53:25;;;;;;;25.13;6.47;;;;;;;34.19;30.24;100107.25;5054291;28;20583;-76
2021/06/23 11:55:52;;;;;;;30.65;6.30;;;;;;;34.30;28.43;100099.16;5052868;28;20080;-76
2021/06/23 11:58:20;;;;;;;31.63;6.25;;;;;;;34.36;29.65;100105.06;5053972;28;20045;-75
2021/06/23 12:00:47;;;;;;;27.33;6.15;;;;;;;34.22;30.60;100100.66;5053901;28;20059;-76
2021/06/23 12:03:15;;;;;;;49.45;6.43;;;;;;;34.32;29.26;100104.38;5054313;28;20579;-81
2021/06/23 12:05:42;;;;;;;27.13;6.53;;;;;;;34.44;29.16;100102.75;5074116;28;20048;-81
2021/06/23 12:08:08;;;;;;;27.15;6.20;;;;;;;34.57;27.37;100100.72;5074307;28;20102;-78